sensor_id;sensor_type;location;lat;lon;timestamp;P1;durP1;ratioP1;P2;durP2;ratioP2
11418;SDS011;32800;44.876;13.880;2023-05-03T00:01:59;4.33;;;3.37;;
11418;SDS011;32800;44.876;13.880;2023-05-03T00:04:26;4.00;;;3.20;;
11418;SDS011;32800;44.876;13.880;2023-05-03T00:06:51;4.67;;;3.67;;
11418;SDS011;32800;44.876;13.880;2023-05-03T00:09:17;4.33;;;3.40;;
11418;SDS011;32800;44.876;13.880;2023-05-03T00:11:42;4.57;;;3.50;;
11418;SDS011;32800;44.876;13.880;2023-05-03T00:14:08;3.87;;;3.53;;
11418;SDS011;32800;44.876;13.880;2023-05-03T00:16:33;4.57;;;3.47;;
11418;SDS011;32800;44.876;13.880;2023-05-03T00:18:59;4.10;;;3.23;;
11418;SDS011;32800;44.876;13.880;2023-05-03T00:21:25;3.93;;;3.50;;
11418;SDS011;32800;44.876;13.880;2023-05-03T00:23:51;4.43;;;3.43;;
11418;SDS011;32800;44.876;13.880;2023-05-03T00:26:16;4.43;;;3.40;;
11418;SDS011;32800;44.876;13.880;2023-05-03T00:28:42;4.73;;;3.80;;
11418;SDS011;32800;44.876;13.880;2023-05-03T00:31:08;4.50;;;3.70;;
11418;SDS011;32800;44.876;13.880;2023-05-03T00:33:37;3.83;;;3.43;;
11418;SDS011;32800;44.876;13.880;2023-05-03T00:36:10;4.90;;;3.40;;
11418;SDS011;32800;44.876;13.880;2023-05-03T00:38:39;3.83;;;3.23;;
11418;SDS011;32800;44.876;13.880;2023-05-03T00:41:05;4.23;;;3.23;;
11418;SDS011;32800;44.876;13.880;2023-05-03T00:43:31;4.23;;;3.57;;
11418;SDS011;32800;44.876;13.880;2023-05-03T00:45:58;3.67;;;3.17;;
11418;SDS011;32800;44.876;13.880;2023-05-03T00:48:25;4.90;;;3.53;;
11418;SDS011;32800;44.876;13.880;2023-05-03T00:50:51;3.77;;;3.43;;
11418;SDS011;32800;44.876;13.880;2023-05-03T00:53:18;4.20;;;3.60;;
11418;SDS011;32800;44.876;13.880;2023-05-03T00:55:45;3.70;;;3.13;;
11418;SDS011;32800;44.876;13.880;2023-05-03T00:58:11;3.90;;;3.20;;
11418;SDS011;32800;44.876;13.880;2023-05-03T01:00:37;5.10;;;3.40;;
11418;SDS011;32800;44.876;13.880;2023-05-03T01:03:03;4.50;;;3.43;;
11418;SDS011;32800;44.876;13.880;2023-05-03T01:05:31;4.13;;;3.70;;
11418;SDS011;32800;44.876;13.880;2023-05-03T01:11:00;3.90;;;3.47;;
11418;SDS011;32800;44.876;13.880;2023-05-03T01:13:36;5.83;;;3.60;;
11418;SDS011;32800;44.876;13.880;2023-05-03T01:18:41;3.93;;;3.20;;
11418;SDS011;32800;44.876;13.880;2023-05-03T01:21:13;3.90;;;3.17;;
11418;SDS011;32800;44.876;13.880;2023-05-03T01:23:45;4.07;;;3.50;;
11418;SDS011;32800;44.876;13.880;2023-05-03T01:26:29;3.50;;;3.13;;
11418;SDS011;32800;44.876;13.880;2023-05-03T01:28:55;4.40;;;3.50;;
11418;SDS011;32800;44.876;13.880;2023-05-03T01:31:22;3.23;;;2.70;;
11418;SDS011;32800;44.876;13.880;2023-05-03T01:34:09;3.73;;;2.97;;
11418;SDS011;32800;44.876;13.880;2023-05-03T01:36:43;3.80;;;3.10;;
11418;SDS011;32800;44.876;13.880;2023-05-03T01:39:11;3.43;;;2.70;;
11418;SDS011;32800;44.876;13.880;2023-05-03T01:41:41;3.27;;;2.70;;
11418;SDS011;32800;44.876;13.880;2023-05-03T01:44:07;3.80;;;3.20;;
11418;SDS011;32800;44.876;13.880;2023-05-03T01:46:33;3.37;;;3.00;;
11418;SDS011;32800;44.876;13.880;2023-05-03T01:48:59;4.17;;;3.30;;
11418;SDS011;32800;44.876;13.880;2023-05-03T01:51:24;4.47;;;3.43;;
11418;SDS011;32800;44.876;13.880;2023-05-03T01:53:50;4.33;;;3.17;;
11418;SDS011;32800;44.876;13.880;2023-05-03T01:56:15;4.53;;;3.33;;
11418;SDS011;32800;44.876;13.880;2023-05-03T01:58:41;3.63;;;2.93;;
11418;SDS011;32800;44.876;13.880;2023-05-03T02:01:06;3.83;;;2.90;;
11418;SDS011;32800;44.876;13.880;2023-05-03T02:03:32;4.87;;;3.10;;
11418;SDS011;32800;44.876;13.880;2023-05-03T02:05:58;16.03;;;3.70;;
11418;SDS011;32800;44.876;13.880;2023-05-03T02:08:24;4.70;;;2.87;;
11418;SDS011;32800;44.876;13.880;2023-05-03T02:10:49;3.20;;;2.90;;
11418;SDS011;32800;44.876;13.880;2023-05-03T02:13:15;6.93;;;2.97;;
11418;SDS011;32800;44.876;13.880;2023-05-03T02:15:40;3.00;;;2.70;;
11418;SDS011;32800;44.876;13.880;2023-05-03T02:18:06;4.33;;;2.77;;
11418;SDS011;32800;44.876;13.880;2023-05-03T02:20:32;3.37;;;3.07;;
11418;SDS011;32800;44.876;13.880;2023-05-03T02:23:02;3.37;;;2.83;;
11418;SDS011;32800;44.876;13.880;2023-05-03T02:25:28;3.27;;;2.70;;
11418;SDS011;32800;44.876;13.880;2023-05-03T02:27:53;3.57;;;3.03;;
11418;SDS011;32800;44.876;13.880;2023-05-03T02:30:19;4.13;;;2.97;;
11418;SDS011;32800;44.876;13.880;2023-05-03T02:32:45;3.40;;;2.83;;
11418;SDS011;32800;44.876;13.880;2023-05-03T02:35:10;4.63;;;2.73;;
11418;SDS011;32800;44.876;13.880;2023-05-03T02:37:36;3.27;;;2.77;;
11418;SDS011;32800;44.876;13.880;2023-05-03T02:40:01;3.20;;;2.90;;
11418;SDS011;32800;44.876;13.880;2023-05-03T02:42:29;3.97;;;2.93;;
11418;SDS011;32800;44.876;13.880;2023-05-03T02:44:55;3.23;;;2.80;;
11418;SDS011;32800;44.876;13.880;2023-05-03T02:47:21;2.93;;;2.67;;
11418;SDS011;32800;44.876;13.880;2023-05-03T02:49:46;4.00;;;2.87;;
11418;SDS011;32800;44.876;13.880;2023-05-03T02:52:12;4.43;;;3.07;;
11418;SDS011;32800;44.876;13.880;2023-05-03T02:54:37;4.80;;;3.00;;
11418;SDS011;32800;44.876;13.880;2023-05-03T02:57:03;3.33;;;3.00;;
11418;SDS011;32800;44.876;13.880;2023-05-03T02:59:29;3.47;;;2.87;;
11418;SDS011;32800;44.876;13.880;2023-05-03T03:01:54;2.70;;;2.47;;
11418;SDS011;32800;44.876;13.880;2023-05-03T03:04:20;3.53;;;2.50;;
11418;SDS011;32800;44.876;13.880;2023-05-03T03:06:45;3.40;;;2.70;;
11418;SDS011;32800;44.876;13.880;2023-05-03T03:09:11;3.03;;;2.63;;
11418;SDS011;32800;44.876;13.880;2023-05-03T03:11:37;3.43;;;2.70;;
11418;SDS011;32800;44.876;13.880;2023-05-03T03:14:02;3.47;;;2.67;;
11418;SDS011;32800;44.876;13.880;2023-05-03T03:16:28;3.67;;;2.67;;
11418;SDS011;32800;44.876;13.880;2023-05-03T03:18:53;3.50;;;3.00;;
11418;SDS011;32800;44.876;13.880;2023-05-03T03:21:19;3.57;;;2.67;;
11418;SDS011;32800;44.876;13.880;2023-05-03T03:23:44;3.20;;;2.80;;
11418;SDS011;32800;44.876;13.880;2023-05-03T03:26:10;2.80;;;2.43;;
11418;SDS011;32800;44.876;13.880;2023-05-03T03:28:36;2.90;;;2.50;;
11418;SDS011;32800;44.876;13.880;2023-05-03T03:31:02;2.63;;;2.43;;
11418;SDS011;32800;44.876;13.880;2023-05-03T03:33:27;3.37;;;2.87;;
11418;SDS011;32800;44.876;13.880;2023-05-03T03:35:53;3.27;;;2.60;;
11418;SDS011;32800;44.876;13.880;2023-05-03T03:38:18;3.10;;;2.60;;
11418;SDS011;32800;44.876;13.880;2023-05-03T03:40:44;3.13;;;2.70;;
11418;SDS011;32800;44.876;13.880;2023-05-03T03:43:09;3.27;;;2.93;;
11418;SDS011;32800;44.876;13.880;2023-05-03T03:45:35;2.83;;;2.53;;
11418;SDS011;32800;44.876;13.880;2023-05-03T03:48:00;3.90;;;2.70;;
11418;SDS011;32800;44.876;13.880;2023-05-03T03:50:26;2.50;;;2.30;;
11418;SDS011;32800;44.876;13.880;2023-05-03T03:52:51;3.00;;;2.67;;
11418;SDS011;32800;44.876;13.880;2023-05-03T03:55:17;3.57;;;2.70;;
11418;SDS011;32800;44.876;13.880;2023-05-03T03:57:42;2.80;;;2.50;;
11418;SDS011;32800;44.876;13.880;2023-05-03T04:00:08;2.83;;;2.40;;
11418;SDS011;32800;44.876;13.880;2023-05-03T04:02:35;2.60;;;2.30;;
11418;SDS011;32800;44.876;13.880;2023-05-03T04:05:01;2.83;;;2.40;;
11418;SDS011;32800;44.876;13.880;2023-05-03T04:07:28;2.37;;;2.17;;
11418;SDS011;32800;44.876;13.880;2023-05-03T04:09:53;3.30;;;2.43;;
11418;SDS011;32800;44.876;13.880;2023-05-03T04:12:20;2.60;;;2.40;;
11418;SDS011;32800;44.876;13.880;2023-05-03T04:14:46;5.00;;;2.47;;
11418;SDS011;32800;44.876;13.880;2023-05-03T04:17:11;2.43;;;2.23;;
11418;SDS011;32800;44.876;13.880;2023-05-03T04:19:37;3.00;;;2.33;;
11418;SDS011;32800;44.876;13.880;2023-05-03T04:22:03;2.77;;;2.53;;
11418;SDS011;32800;44.876;13.880;2023-05-03T04:24:29;2.60;;;2.37;;
11418;SDS011;32800;44.876;13.880;2023-05-03T04:26:55;3.23;;;2.83;;
11418;SDS011;32800;44.876;13.880;2023-05-03T04:29:22;2.87;;;2.50;;
11418;SDS011;32800;44.876;13.880;2023-05-03T04:31:49;3.17;;;2.60;;
11418;SDS011;32800;44.876;13.880;2023-05-03T04:34:14;2.73;;;2.30;;
11418;SDS011;32800;44.876;13.880;2023-05-03T04:36:40;2.60;;;2.33;;
11418;SDS011;32800;44.876;13.880;2023-05-03T04:39:06;3.47;;;2.30;;
11418;SDS011;32800;44.876;13.880;2023-05-03T04:41:32;2.53;;;2.33;;
11418;SDS011;32800;44.876;13.880;2023-05-03T04:43:58;2.43;;;2.23;;
11418;SDS011;32800;44.876;13.880;2023-05-03T04:46:24;2.87;;;2.20;;
11418;SDS011;32800;44.876;13.880;2023-05-03T04:48:49;3.07;;;2.70;;
11418;SDS011;32800;44.876;13.880;2023-05-03T04:51:15;6.33;;;2.77;;
11418;SDS011;32800;44.876;13.880;2023-05-03T04:53:41;2.47;;;2.27;;
11418;SDS011;32800;44.876;13.880;2023-05-03T04:56:06;2.80;;;2.23;;
11418;SDS011;32800;44.876;13.880;2023-05-03T04:58:32;2.53;;;2.10;;
11418;SDS011;32800;44.876;13.880;2023-05-03T05:00:57;2.90;;;2.60;;
11418;SDS011;32800;44.876;13.880;2023-05-03T05:03:23;3.17;;;2.60;;
11418;SDS011;32800;44.876;13.880;2023-05-03T05:05:49;2.87;;;2.47;;
11418;SDS011;32800;44.876;13.880;2023-05-03T05:08:15;2.53;;;2.33;;
11418;SDS011;32800;44.876;13.880;2023-05-03T05:10:41;2.53;;;2.20;;
11418;SDS011;32800;44.876;13.880;2023-05-03T05:13:06;2.70;;;2.27;;
11418;SDS011;32800;44.876;13.880;2023-05-03T05:15:32;3.43;;;2.00;;
11418;SDS011;32800;44.876;13.880;2023-05-03T05:17:58;3.40;;;2.10;;
11418;SDS011;32800;44.876;13.880;2023-05-03T05:20:23;1.97;;;1.87;;
11418;SDS011;32800;44.876;13.880;2023-05-03T05:22:49;3.43;;;1.87;;
11418;SDS011;32800;44.876;13.880;2023-05-03T05:25:15;2.17;;;1.97;;
11418;SDS011;32800;44.876;13.880;2023-05-03T05:27:40;3.60;;;2.00;;
11418;SDS011;32800;44.876;13.880;2023-05-03T05:30:06;4.30;;;2.00;;
11418;SDS011;32800;44.876;13.880;2023-05-03T05:32:32;2.30;;;1.97;;
11418;SDS011;32800;44.876;13.880;2023-05-03T05:34:58;2.57;;;1.80;;
11418;SDS011;32800;44.876;13.880;2023-05-03T05:37:24;3.17;;;1.80;;
11418;SDS011;32800;44.876;13.880;2023-05-03T05:39:50;2.90;;;1.80;;
11418;SDS011;32800;44.876;13.880;2023-05-03T05:42:16;1.83;;;1.63;;
11418;SDS011;32800;44.876;13.880;2023-05-03T05:44:41;2.50;;;1.60;;
11418;SDS011;32800;44.876;13.880;2023-05-03T05:47:07;2.17;;;1.67;;
11418;SDS011;32800;44.876;13.880;2023-05-03T05:49:33;3.80;;;1.50;;
11418;SDS011;32800;44.876;13.880;2023-05-03T05:51:59;1.57;;;1.47;;
11418;SDS011;32800;44.876;13.880;2023-05-03T05:54:24;1.63;;;1.53;;
11418;SDS011;32800;44.876;13.880;2023-05-03T05:56:50;2.50;;;1.40;;
11418;SDS011;32800;44.876;13.880;2023-05-03T05:59:16;1.50;;;1.40;;
11418;SDS011;32800;44.876;13.880;2023-05-03T06:01:41;2.60;;;1.53;;
11418;SDS011;32800;44.876;13.880;2023-05-03T06:04:13;1.77;;;1.43;;
11418;SDS011;32800;44.876;13.880;2023-05-03T06:06:38;1.83;;;1.33;;
11418;SDS011;32800;44.876;13.880;2023-05-03T06:09:04;2.37;;;1.80;;
11418;SDS011;32800;44.876;13.880;2023-05-03T06:11:31;3.27;;;1.60;;
11418;SDS011;32800;44.876;13.880;2023-05-03T06:13:57;1.57;;;1.47;;
11418;SDS011;32800;44.876;13.880;2023-05-03T06:16:23;2.27;;;1.77;;
11418;SDS011;32800;44.876;13.880;2023-05-03T06:18:49;1.60;;;1.50;;
11418;SDS011;32800;44.876;13.880;2023-05-03T06:21:15;2.07;;;1.70;;
11418;SDS011;32800;44.876;13.880;2023-05-03T06:23:41;1.70;;;1.57;;
11418;SDS011;32800;44.876;13.880;2023-05-03T06:26:06;2.50;;;1.77;;
11418;SDS011;32800;44.876;13.880;2023-05-03T06:28:33;2.10;;;1.63;;
11418;SDS011;32800;44.876;13.880;2023-05-03T06:30:58;2.00;;;1.80;;
11418;SDS011;32800;44.876;13.880;2023-05-03T06:33:24;2.70;;;1.93;;
11418;SDS011;32800;44.876;13.880;2023-05-03T06:35:50;1.80;;;1.70;;
11418;SDS011;32800;44.876;13.880;2023-05-03T06:38:16;2.00;;;1.80;;
11418;SDS011;32800;44.876;13.880;2023-05-03T06:40:43;2.03;;;1.83;;
11418;SDS011;32800;44.876;13.880;2023-05-03T06:43:12;2.43;;;1.80;;
11418;SDS011;32800;44.876;13.880;2023-05-03T06:45:38;3.83;;;2.00;;
11418;SDS011;32800;44.876;13.880;2023-05-03T06:48:05;2.87;;;1.77;;
11418;SDS011;32800;44.876;13.880;2023-05-03T06:50:31;2.17;;;1.77;;
11418;SDS011;32800;44.876;13.880;2023-05-03T06:52:56;2.00;;;1.77;;
11418;SDS011;32800;44.876;13.880;2023-05-03T06:55:22;2.67;;;1.83;;
11418;SDS011;32800;44.876;13.880;2023-05-03T06:57:48;4.17;;;1.67;;
11418;SDS011;32800;44.876;13.880;2023-05-03T07:00:13;1.83;;;1.73;;
11418;SDS011;32800;44.876;13.880;2023-05-03T07:02:40;3.40;;;1.80;;
11418;SDS011;32800;44.876;13.880;2023-05-03T07:05:05;2.87;;;1.77;;
11418;SDS011;32800;44.876;13.880;2023-05-03T07:07:32;2.23;;;1.50;;
11418;SDS011;32800;44.876;13.880;2023-05-03T07:09:58;2.50;;;1.50;;
11418;SDS011;32800;44.876;13.880;2023-05-03T07:12:23;2.63;;;1.60;;
11418;SDS011;32800;44.876;13.880;2023-05-03T07:14:55;3.57;;;1.60;;
11418;SDS011;32800;44.876;13.880;2023-05-03T07:17:21;2.67;;;1.50;;
11418;SDS011;32800;44.876;13.880;2023-05-03T07:19:48;1.43;;;1.33;;
11418;SDS011;32800;44.876;13.880;2023-05-03T07:22:14;1.40;;;1.30;;
11418;SDS011;32800;44.876;13.880;2023-05-03T07:24:40;1.90;;;1.37;;
11418;SDS011;32800;44.876;13.880;2023-05-03T07:27:06;1.93;;;1.73;;
11418;SDS011;32800;44.876;13.880;2023-05-03T07:29:31;2.63;;;1.53;;
11418;SDS011;32800;44.876;13.880;2023-05-03T07:31:57;2.00;;;1.50;;
11418;SDS011;32800;44.876;13.880;2023-05-03T07:34:23;1.73;;;1.30;;
11418;SDS011;32800;44.876;13.880;2023-05-03T07:36:48;1.77;;;1.60;;
11418;SDS011;32800;44.876;13.880;2023-05-03T07:39:14;2.13;;;1.50;;
11418;SDS011;32800;44.876;13.880;2023-05-03T07:41:40;1.63;;;1.50;;
11418;SDS011;32800;44.876;13.880;2023-05-03T07:44:05;2.17;;;1.40;;
11418;SDS011;32800;44.876;13.880;2023-05-03T07:46:31;2.63;;;1.60;;
11418;SDS011;32800;44.876;13.880;2023-05-03T07:48:59;2.30;;;1.43;;
11418;SDS011;32800;44.876;13.880;2023-05-03T07:51:25;1.90;;;1.50;;
11418;SDS011;32800;44.876;13.880;2023-05-03T07:53:52;1.93;;;1.57;;
11418;SDS011;32800;44.876;13.880;2023-05-03T07:56:19;1.40;;;1.30;;
11418;SDS011;32800;44.876;13.880;2023-05-03T07:58:45;1.70;;;1.37;;
11418;SDS011;32800;44.876;13.880;2023-05-03T08:01:10;2.43;;;1.50;;
11418;SDS011;32800;44.876;13.880;2023-05-03T08:03:36;1.90;;;1.60;;
11418;SDS011;32800;44.876;13.880;2023-05-03T08:06:02;2.37;;;1.63;;
11418;SDS011;32800;44.876;13.880;2023-05-03T08:08:28;1.30;;;1.13;;
11418;SDS011;32800;44.876;13.880;2023-05-03T08:10:55;1.53;;;1.43;;
11418;SDS011;32800;44.876;13.880;2023-05-03T08:13:21;1.57;;;1.30;;
11418;SDS011;32800;44.876;13.880;2023-05-03T08:15:47;1.50;;;1.40;;
11418;SDS011;32800;44.876;13.880;2023-05-03T08:18:13;1.90;;;1.67;;
11418;SDS011;32800;44.876;13.880;2023-05-03T08:20:38;2.50;;;1.40;;
11418;SDS011;32800;44.876;13.880;2023-05-03T08:23:04;1.60;;;1.50;;
11418;SDS011;32800;44.876;13.880;2023-05-03T08:25:30;1.90;;;1.70;;
11418;SDS011;32800;44.876;13.880;2023-05-03T08:27:55;1.57;;;1.43;;
11418;SDS011;32800;44.876;13.880;2023-05-03T08:30:21;2.40;;;1.57;;
11418;SDS011;32800;44.876;13.880;2023-05-03T08:32:47;1.80;;;1.40;;
11418;SDS011;32800;44.876;13.880;2023-05-03T08:35:12;2.60;;;1.40;;
11418;SDS011;32800;44.876;13.880;2023-05-03T08:37:42;1.57;;;1.40;;
11418;SDS011;32800;44.876;13.880;2023-05-03T08:40:09;1.77;;;1.30;;
11418;SDS011;32800;44.876;13.880;2023-05-03T08:42:38;2.20;;;1.43;;
11418;SDS011;32800;44.876;13.880;2023-05-03T08:45:05;1.83;;;1.45;;
11418;SDS011;32800;44.876;13.880;2023-05-03T08:47:32;3.05;;;1.40;;
11418;SDS011;32800;44.876;13.880;2023-05-03T08:50:02;2.65;;;1.30;;
11418;SDS011;32800;44.876;13.880;2023-05-03T08:52:29;1.45;;;1.30;;
11418;SDS011;32800;44.876;13.880;2023-05-03T08:54:55;2.40;;;1.60;;
11418;SDS011;32800;44.876;13.880;2023-05-03T08:57:21;1.55;;;1.20;;
11418;SDS011;32800;44.876;13.880;2023-05-03T08:59:49;2.88;;;1.50;;
11418;SDS011;32800;44.876;13.880;2023-05-03T09:02:15;1.95;;;1.42;;
11418;SDS011;32800;44.876;13.880;2023-05-03T09:04:41;3.38;;;1.60;;
11418;SDS011;32800;44.876;13.880;2023-05-03T09:07:07;1.38;;;1.27;;
11418;SDS011;32800;44.876;13.880;2023-05-03T09:09:34;1.85;;;1.35;;
11418;SDS011;32800;44.876;13.880;2023-05-03T09:12:00;1.85;;;1.30;;
11418;SDS011;32800;44.876;13.880;2023-05-03T09:14:27;2.03;;;1.20;;
11418;SDS011;32800;44.876;13.880;2023-05-03T09:16:52;2.08;;;1.60;;
11418;SDS011;32800;44.876;13.880;2023-05-03T09:19:18;1.85;;;1.30;;
11418;SDS011;32800;44.876;13.880;2023-05-03T09:21:45;2.40;;;1.30;;
11418;SDS011;32800;44.876;13.880;2023-05-03T09:24:15;2.50;;;1.40;;
11418;SDS011;32800;44.876;13.880;2023-05-03T09:26:45;1.70;;;1.48;;
11418;SDS011;32800;44.876;13.880;2023-05-03T09:29:31;1.90;;;1.30;;
11418;SDS011;32800;44.876;13.880;2023-05-03T09:31:59;1.92;;;1.13;;
11418;SDS011;32800;44.876;13.880;2023-05-03T09:34:25;1.70;;;1.20;;
11418;SDS011;32800;44.876;13.880;2023-05-03T09:36:51;1.38;;;1.27;;
11418;SDS011;32800;44.876;13.880;2023-05-03T09:39:17;2.58;;;1.35;;
11418;SDS011;32800;44.876;13.880;2023-05-03T09:41:44;2.70;;;1.50;;
11418;SDS011;32800;44.876;13.880;2023-05-03T09:44:09;2.33;;;1.58;;
11418;SDS011;32800;44.876;13.880;2023-05-03T09:46:35;1.63;;;1.10;;
11418;SDS011;32800;44.876;13.880;2023-05-03T09:49:01;2.67;;;1.38;;
11418;SDS011;32800;44.876;13.880;2023-05-03T09:51:28;1.63;;;1.30;;
11418;SDS011;32800;44.876;13.880;2023-05-03T09:53:55;2.45;;;1.30;;
11418;SDS011;32800;44.876;13.880;2023-05-03T09:56:20;2.50;;;1.30;;
11418;SDS011;32800;44.876;13.880;2023-05-03T09:58:50;2.23;;;1.57;;
11418;SDS011;32800;44.876;13.880;2023-05-03T10:01:16;1.88;;;1.40;;
11418;SDS011;32800;44.876;13.880;2023-05-03T10:03:42;3.05;;;1.25;;
11418;SDS011;32800;44.876;13.880;2023-05-03T10:09:02;1.63;;;1.20;;
11418;SDS011;32800;44.876;13.880;2023-05-03T10:11:32;1.80;;;1.30;;
11418;SDS011;32800;44.876;13.880;2023-05-03T10:14:00;2.13;;;1.17;;
11418;SDS011;32800;44.876;13.880;2023-05-03T10:16:28;1.30;;;1.20;;
11418;SDS011;32800;44.876;13.880;2023-05-03T10:19:04;2.20;;;1.43;;
11418;SDS011;32800;44.876;13.880;2023-05-03T10:24:31;1.53;;;1.00;;
11418;SDS011;32800;44.876;13.880;2023-05-03T10:26:57;1.77;;;1.30;;
11418;SDS011;32800;44.876;13.880;2023-05-03T10:32:04;1.33;;;1.20;;
11418;SDS011;32800;44.876;13.880;2023-05-03T10:34:33;1.23;;;1.13;;
11418;SDS011;32800;44.876;13.880;2023-05-03T10:37:18;1.57;;;1.20;;
11418;SDS011;32800;44.876;13.880;2023-05-03T10:39:51;1.40;;;1.30;;
11418;SDS011;32800;44.876;13.880;2023-05-03T10:42:19;1.33;;;1.23;;
11418;SDS011;32800;44.876;13.880;2023-05-03T10:44:53;1.63;;;1.20;;
11418;SDS011;32800;44.876;13.880;2023-05-03T10:47:20;2.43;;;1.30;;
11418;SDS011;32800;44.876;13.880;2023-05-03T10:50:33;2.20;;;1.40;;
11418;SDS011;32800;44.876;13.880;2023-05-03T10:57:38;1.30;;;1.20;;
11418;SDS011;32800;44.876;13.880;2023-05-03T11:05:23;1.77;;;1.20;;
11418;SDS011;32800;44.876;13.880;2023-05-03T11:07:51;1.27;;;1.17;;
11418;SDS011;32800;44.876;13.880;2023-05-03T11:10:18;2.10;;;1.30;;
11418;SDS011;32800;44.876;13.880;2023-05-03T11:12:44;2.27;;;1.20;;
11418;SDS011;32800;44.876;13.880;2023-05-03T11:15:09;1.40;;;1.30;;
11418;SDS011;32800;44.876;13.880;2023-05-03T11:17:39;1.40;;;1.20;;
11418;SDS011;32800;44.876;13.880;2023-05-03T11:20:05;1.30;;;1.13;;
11418;SDS011;32800;44.876;13.880;2023-05-03T11:22:34;1.97;;;1.30;;
11418;SDS011;32800;44.876;13.880;2023-05-03T11:25:00;1.40;;;1.30;;
11418;SDS011;32800;44.876;13.880;2023-05-03T11:27:25;1.30;;;1.20;;
11418;SDS011;32800;44.876;13.880;2023-05-03T11:29:51;2.10;;;1.30;;
11418;SDS011;32800;44.876;13.880;2023-05-03T11:32:24;2.10;;;1.30;;
11418;SDS011;32800;44.876;13.880;2023-05-03T11:34:51;5.53;;;1.33;;
11418;SDS011;32800;44.876;13.880;2023-05-03T11:37:16;1.50;;;1.40;;
11418;SDS011;32800;44.876;13.880;2023-05-03T11:39:42;1.93;;;1.30;;
11418;SDS011;32800;44.876;13.880;2023-05-03T11:42:07;2.10;;;1.37;;
11418;SDS011;32800;44.876;13.880;2023-05-03T11:44:33;1.00;;;1.00;;
11418;SDS011;32800;44.876;13.880;2023-05-03T11:46:59;1.50;;;1.40;;
11418;SDS011;32800;44.876;13.880;2023-05-03T11:49:25;1.40;;;1.30;;
11418;SDS011;32800;44.876;13.880;2023-05-03T11:51:51;2.03;;;1.43;;
11418;SDS011;32800;44.876;13.880;2023-05-03T11:54:16;1.30;;;1.20;;
11418;SDS011;32800;44.876;13.880;2023-05-03T11:56:42;1.30;;;1.20;;
11418;SDS011;32800;44.876;13.880;2023-05-03T11:59:07;1.60;;;1.40;;
11418;SDS011;32800;44.876;13.880;2023-05-03T12:01:33;2.73;;;1.30;;
11418;SDS011;32800;44.876;13.880;2023-05-03T12:03:59;1.50;;;1.40;;
11418;SDS011;32800;44.876;13.880;2023-05-03T12:06:27;1.97;;;1.47;;
11418;SDS011;32800;44.876;13.880;2023-05-03T12:08:55;2.67;;;1.83;;
11418;SDS011;32800;44.876;13.880;2023-05-03T12:11:21;5.13;;;2.07;;
11418;SDS011;32800;44.876;13.880;2023-05-03T12:13:54;5.07;;;2.77;;
11418;SDS011;32800;44.876;13.880;2023-05-03T12:16:22;3.97;;;2.67;;
11418;SDS011;32800;44.876;13.880;2023-05-03T12:18:49;4.83;;;2.20;;
11418;SDS011;32800;44.876;13.880;2023-05-03T12:21:15;4.27;;;2.30;;
11418;SDS011;32800;44.876;13.880;2023-05-03T12:23:41;3.63;;;2.00;;
11418;SDS011;32800;44.876;13.880;2023-05-03T12:26:07;5.67;;;2.20;;
11418;SDS011;32800;44.876;13.880;2023-05-03T12:28:32;4.13;;;1.80;;
11418;SDS011;32800;44.876;13.880;2023-05-03T12:31:02;4.67;;;1.90;;
11418;SDS011;32800;44.876;13.880;2023-05-03T12:33:28;4.10;;;2.23;;
11418;SDS011;32800;44.876;13.880;2023-05-03T12:35:54;4.03;;;1.70;;
11418;SDS011;32800;44.876;13.880;2023-05-03T12:38:20;3.30;;;1.90;;
11418;SDS011;32800;44.876;13.880;2023-05-03T12:40:47;2.70;;;1.93;;
11418;SDS011;32800;44.876;13.880;2023-05-03T12:43:12;2.38;;;1.80;;
11418;SDS011;32800;44.876;13.880;2023-05-03T12:45:38;2.70;;;1.80;;
11418;SDS011;32800;44.876;13.880;2023-05-03T12:48:04;3.43;;;1.70;;
11418;SDS011;32800;44.876;13.880;2023-05-03T12:50:29;3.07;;;1.90;;
11418;SDS011;32800;44.876;13.880;2023-05-03T12:52:55;3.70;;;1.83;;
11418;SDS011;32800;44.876;13.880;2023-05-03T12:55:21;1.70;;;1.50;;
11418;SDS011;32800;44.876;13.880;2023-05-03T12:57:46;2.30;;;1.97;;
11418;SDS011;32800;44.876;13.880;2023-05-03T13:00:12;3.17;;;1.70;;
11418;SDS011;32800;44.876;13.880;2023-05-03T13:02:38;1.73;;;1.50;;
11418;SDS011;32800;44.876;13.880;2023-05-03T13:05:04;2.37;;;1.63;;
11418;SDS011;32800;44.876;13.880;2023-05-03T13:07:31;1.92;;;1.55;;
11418;SDS011;32800;44.876;13.880;2023-05-03T13:09:57;1.93;;;1.60;;
11418;SDS011;32800;44.876;13.880;2023-05-03T13:12:23;2.43;;;1.70;;
11418;SDS011;32800;44.876;13.880;2023-05-03T13:14:50;1.50;;;1.40;;
11418;SDS011;32800;44.876;13.880;2023-05-03T13:17:18;2.50;;;1.73;;
11418;SDS011;32800;44.876;13.880;2023-05-03T13:19:47;1.80;;;1.70;;
11418;SDS011;32800;44.876;13.880;2023-05-03T13:22:13;3.60;;;1.70;;
11418;SDS011;32800;44.876;13.880;2023-05-03T13:24:39;1.67;;;1.57;;
11418;SDS011;32800;44.876;13.880;2023-05-03T13:27:06;1.63;;;1.53;;
11418;SDS011;32800;44.876;13.880;2023-05-03T13:29:32;2.17;;;1.70;;
11418;SDS011;32800;44.876;13.880;2023-05-03T13:31:58;2.20;;;1.50;;
11418;SDS011;32800;44.876;13.880;2023-05-03T13:34:24;4.50;;;1.60;;
11418;SDS011;32800;44.876;13.880;2023-05-03T13:36:50;1.50;;;1.40;;
11418;SDS011;32800;44.876;13.880;2023-05-03T13:39:15;2.60;;;1.37;;
11418;SDS011;32800;44.876;13.880;2023-05-03T13:41:43;2.60;;;1.53;;
11418;SDS011;32800;44.876;13.880;2023-05-03T13:44:08;1.70;;;1.50;;
11418;SDS011;32800;44.876;13.880;2023-05-03T13:46:35;2.00;;;1.70;;
11418;SDS011;32800;44.876;13.880;2023-05-03T13:49:01;1.63;;;1.53;;
11418;SDS011;32800;44.876;13.880;2023-05-03T13:51:30;1.70;;;1.60;;
11418;SDS011;32800;44.876;13.880;2023-05-03T13:53:57;2.57;;;1.53;;
11418;SDS011;32800;44.876;13.880;2023-05-03T13:56:23;1.60;;;1.50;;
11418;SDS011;32800;44.876;13.880;2023-05-03T13:58:49;2.60;;;1.70;;
11418;SDS011;32800;44.876;13.880;2023-05-03T14:01:15;2.77;;;1.60;;
11418;SDS011;32800;44.876;13.880;2023-05-03T14:03:41;3.03;;;1.37;;
11418;SDS011;32800;44.876;13.880;2023-05-03T14:06:06;2.07;;;1.87;;
11418;SDS011;32800;44.876;13.880;2023-05-03T14:08:32;1.70;;;1.57;;
11418;SDS011;32800;44.876;13.880;2023-05-03T14:10:58;1.57;;;1.47;;
11418;SDS011;32800;44.876;13.880;2023-05-03T14:13:24;1.80;;;1.70;;
11418;SDS011;32800;44.876;13.880;2023-05-03T14:15:49;1.60;;;1.50;;
11418;SDS011;32800;44.876;13.880;2023-05-03T14:18:15;2.50;;;1.50;;
11418;SDS011;32800;44.876;13.880;2023-05-03T14:20:41;1.47;;;1.37;;
11418;SDS011;32800;44.876;13.880;2023-05-03T14:23:07;1.60;;;1.50;;
11418;SDS011;32800;44.876;13.880;2023-05-03T14:25:33;2.23;;;1.70;;
11418;SDS011;32800;44.876;13.880;2023-05-03T14:27:59;1.58;;;1.48;;
11418;SDS011;32800;44.876;13.880;2023-05-03T14:30:24;2.83;;;1.60;;
11418;SDS011;32800;44.876;13.880;2023-05-03T14:32:50;3.50;;;1.70;;
11418;SDS011;32800;44.876;13.880;2023-05-03T14:35:16;1.80;;;1.70;;
11418;SDS011;32800;44.876;13.880;2023-05-03T14:37:45;2.60;;;1.97;;
11418;SDS011;32800;44.876;13.880;2023-05-03T14:40:11;1.90;;;1.70;;
11418;SDS011;32800;44.876;13.880;2023-05-03T14:42:37;5.53;;;2.20;;
11418;SDS011;32800;44.876;13.880;2023-05-03T14:45:03;1.77;;;1.67;;
11418;SDS011;32800;44.876;13.880;2023-05-03T14:47:30;1.73;;;1.60;;
11418;SDS011;32800;44.876;13.880;2023-05-03T14:49:55;3.83;;;1.70;;
11418;SDS011;32800;44.876;13.880;2023-05-03T14:52:21;1.73;;;1.53;;
11418;SDS011;32800;44.876;13.880;2023-05-03T14:54:47;2.00;;;1.60;;